Time;durP1;ratioP1;P1;durP2;ratioP2;P2;SDS_P1;SDS_P2;PMS_P1;PMS_P2;Temp;Humidity;BMP_temperature;BMP_pressure;BME280_temperature;BME280_humidity;BME280_pressure;Samples;Min_cycle;Max_cycle;Signal;HPM_P1;HPM_P2
2022/01/14 00:01:40;;;;;;;31.30;18.60;;;;;;;3.49;61.65;98540.59;5052154;28;20426;-72
2022/01/14 00:04:05;;;;;;;34.97;19.60;;;;;;;3.56;61.53;98540.25;5052534;28;20185;-73
2022/01/14 00:06:31;;;;;;;32.07;18.87;;;;;;;3.56;61.58;98542.84;5048024;28;20256;-70
2022/01/14 00:09:07;;;;;;;34.80;19.30;;;;;;;3.56;61.57;98537.69;5049180;28;20330;-68
2022/01/14 00:11:35;;;;;;;35.87;19.27;;;;;;;3.62;61.37;98535.63;5051777;28;20197;-70
2022/01/14 00:16:29;;;;;;;30.77;17.47;;;;;;;3.25;61.73;98544.38;5051271;28;20453;-70
2022/01/14 00:18:57;;;;;;;34.97;18.73;;;;;;;3.21;62.08;98528.13;5050809;28;20854;-71
2022/01/14 00:21:23;;;;;;;37.30;19.47;;;;;;;3.26;61.94;98530.50;5050063;28;20191;-71
2022/01/14 00:23:52;;;;;;;31.00;18.63;;;;;;;3.24;61.87;98527.97;5050783;28;20429;-70
2022/01/14 00:32:09;;;;;;;35.20;20.13;;;;;;;3.39;61.91;98516.03;5051148;28;20436;-71
2022/01/14 00:34:34;;;;;;;35.70;19.30;;;;;;;3.47;61.83;98511.28;5053820;28;20421;-71
2022/01/14 00:37:00;;;;;;;37.30;20.23;;;;;;;3.52;61.88;98517.09;5049928;28;20449;-70
2022/01/14 00:39:26;;;;;;;31.63;18.07;;;;;;;3.56;61.89;98510.00;5050823;28;20182;-70
2022/01/14 00:41:52;;;;;;;35.80;19.07;;;;;;;3.40;61.23;98522.91;5052099;28;20187;-71
2022/01/14 00:44:18;;;;;;;32.70;19.07;;;;;;;3.47;61.64;98519.06;5052857;28;20506;-70
2022/01/14 00:46:45;;;;;;;33.60;19.07;;;;;;;3.53;62.04;98517.94;5054391;28;20214;-69
2022/01/14 00:49:12;;;;;;;32.47;20.07;;;;;;;3.60;61.78;98515.88;5050461;28;20484;-71
2022/01/14 00:51:38;;;;;;;32.73;18.93;;;;;;;3.59;61.38;98522.81;5049564;28;20429;-70
2022/01/14 00:54:04;;;;;;;33.37;19.50;;;;;;;3.60;61.59;98516.69;5050682;28;20444;-72
2022/01/14 00:56:46;;;;;;;30.83;17.30;;;;;;;3.59;61.23;98506.41;5050875;28;20582;-71
2022/01/14 00:59:14;;;;;;;35.30;19.20;;;;;;;3.59;61.20;98512.44;5048741;28;20524;-71
2022/01/14 01:01:52;;;;;;;39.10;19.50;;;;;;;3.55;61.53;98508.31;5046627;28;20422;-72
2022/01/14 01:04:34;;;;;;;34.53;19.27;;;;;;;3.51;61.52;98505.06;5047808;28;20482;-71
2022/01/14 01:07:01;;;;;;;37.33;18.80;;;;;;;3.51;61.50;98499.88;5059065;28;20469;-71
2022/01/14 01:09:29;;;;;;;32.27;18.13;;;;;;;3.52;61.00;98500.69;5053404;28;20926;-71
2022/01/14 01:15:06;;;;;;;32.33;18.40;;;;;;;3.20;61.72;98493.59;5045474;28;20456;-72
2022/01/14 01:17:33;;;;;;;32.43;18.37;;;;;;;3.18;62.20;98486.81;5049001;28;20522;-72
2022/01/14 01:19:59;;;;;;;35.07;19.10;;;;;;;3.26;61.68;98492.44;5034657;28;20429;-71
2022/01/14 01:22:24;;;;;;;36.80;18.73;;;;;;;3.33;61.22;98490.41;5043382;28;21033;-71
2022/01/14 01:24:50;;;;;;;30.67;18.33;;;;;;;3.33;60.74;98491.25;5047833;28;20535;-72
2022/01/14 01:27:18;;;;;;;33.17;18.33;;;;;;;3.30;61.23;98495.72;5051878;28;20214;-72
2022/01/14 01:29:50;;;;;;;31.73;19.43;;;;;;;3.26;61.43;98495.03;5046473;28;20282;-73
2022/01/14 01:32:15;;;;;;;37.07;20.53;;;;;;;3.23;61.55;98495.19;5043936;28;20524;-73
2022/01/14 01:34:41;;;;;;;33.57;19.10;;;;;;;3.30;61.26;98496.56;5036873;28;20431;-72
2022/01/14 01:37:06;;;;;;;31.90;19.13;;;;;;;3.33;61.45;98498.16;5044052;28;20187;-71
2022/01/14 01:39:37;;;;;;;30.40;18.60;;;;;;;3.31;61.48;98497.41;5049697;28;20202;-71
2022/01/14 01:42:06;;;;;;;34.00;19.60;;;;;;;3.33;61.19;98496.44;5041452;28;20187;-71
2022/01/14 01:44:33;;;;;;;32.40;18.50;;;;;;;3.38;61.18;98488.44;5034216;28;20437;-71
2022/01/14 01:46:59;;;;;;;36.27;19.70;;;;;;;3.20;61.28;98496.19;5064634;28;20838;-71
2022/01/14 01:49:31;;;;;;;32.20;19.60;;;;;;;3.24;61.04;98491.69;5065352;28;20409;-72
2022/01/14 01:51:57;;;;;;;33.03;19.80;;;;;;;3.32;61.15;98499.09;5075256;28;20235;-72
2022/01/14 01:54:23;;;;;;;32.07;18.73;;;;;;;3.29;61.09;98488.84;5060933;28;20474;-73
2022/01/14 01:56:52;;;;;;;39.60;21.50;;;;;;;3.28;61.03;98495.81;5060972;28;20451;-71
2022/01/14 01:59:25;;;;;;;35.80;19.90;;;;;;;3.28;61.13;98492.34;5073531;28;20428;-69
2022/01/14 02:01:52;;;;;;;34.40;19.90;;;;;;;3.27;60.95;98485.53;5033838;28;20845;-70
2022/01/14 02:04:17;;;;;;;29.17;17.60;;;;;;;3.09;61.62;98487.25;5073101;28;20429;-71
2022/01/14 02:06:43;;;;;;;35.77;19.20;;;;;;;2.74;62.68;98485.41;5073319;28;20452;-70
2022/01/14 02:09:09;;;;;;;33.53;20.00;;;;;;;2.81;62.42;98489.38;5064127;28;20569;-71
2022/01/14 02:11:35;;;;;;;44.73;20.17;;;;;;;2.87;62.13;98478.75;5068450;28;20194;-70
2022/01/14 02:14:05;;;;;;;39.07;21.70;;;;;;;2.89;62.25;98482.13;5071417;28;20304;-71
2022/01/14 02:16:57;;;;;;;32.33;19.80;;;;;;;2.90;62.78;98485.53;5060619;28;20199;-71
2022/01/14 02:19:26;;;;;;;35.33;20.20;;;;;;;2.83;62.99;98477.22;5072410;28;20427;-71
2022/01/14 02:22:12;;;;;;;35.43;19.20;;;;;;;2.97;62.30;98480.91;5064022;28;20424;-70
2022/01/14 02:27:05;;;;;;;33.30;18.77;;;;;;;2.91;62.45;98472.50;5074185;28;20559;-71
2022/01/14 02:29:30;;;;;;;37.60;20.13;;;;;;;3.05;62.24;98476.19;5063273;28;20504;-70
2022/01/14 02:31:57;;;;;;;45.37;21.27;;;;;;;3.13;61.84;98473.22;5073383;28;20185;-69
2022/01/14 02:34:23;;;;;;;32.27;19.23;;;;;;;3.18;61.58;98468.66;5056993;28;20180;-71
2022/01/14 02:36:49;;;;;;;34.27;21.50;;;;;;;3.01;61.58;98459.97;5073245;28;20748;-71
2022/01/14 02:39:16;;;;;;;31.67;19.50;;;;;;;3.01;62.26;98467.72;5064437;28;20182;-71
2022/01/14 02:41:44;;;;;;;35.93;19.00;;;;;;;3.01;62.03;98465.13;5067147;28;20678;-71
2022/01/14 02:44:23;;;;;;;30.10;18.37;;;;;;;3.05;61.75;98456.31;5069203;28;20517;-71
2022/01/14 02:46:56;;;;;;;29.30;17.57;;;;;;;3.04;61.79;98452.03;5071486;28;20456;-69
2022/01/14 02:49:26;;;;;;;36.23;19.40;;;;;;;3.01;61.84;98448.78;5071301;28;20794;-69
2022/01/14 02:51:53;;;;;;;38.47;19.50;;;;;;;2.92;61.94;98448.28;5072131;28;20417;-70
2022/01/14 02:54:24;;;;;;;33.33;19.10;;;;;;;3.04;61.61;98446.00;5046644;28;20952;-71
2022/01/14 02:56:52;;;;;;;31.67;19.13;;;;;;;3.01;61.95;98446.19;5071731;28;20519;-71
2022/01/14 02:59:19;;;;;;;32.27;18.93;;;;;;;2.88;62.33;98439.00;5072725;28;20522;-70
2022/01/14 03:01:46;;;;;;;36.97;19.27;;;;;;;2.97;62.32;98444.63;5067584;28;20429;-70
2022/01/14 03:04:18;;;;;;;34.63;19.10;;;;;;;2.88;62.53;98439.00;5071826;28;20421;-70
2022/01/14 03:06:44;;;;;;;32.90;18.90;;;;;;;3.00;62.25;98447.91;5072832;28;20530;-70
2022/01/14 03:09:10;;;;;;;34.07;18.57;;;;;;;3.01;62.13;98431.47;5073184;28;20478;-69
2022/01/14 03:11:40;;;;;;;32.03;19.60;;;;;;;3.08;61.94;98439.78;5058439;28;20433;-69
2022/01/14 03:14:06;;;;;;;31.07;18.70;;;;;;;3.14;62.00;98434.31;5069130;28;20817;-69
2022/01/14 03:16:38;;;;;;;33.60;19.67;;;;;;;3.11;62.24;98431.84;5072621;28;20465;-69
2022/01/14 03:19:08;;;;;;;32.83;19.03;;;;;;;3.12;61.52;98427.50;5063855;28;20192;-69
2022/01/14 03:21:40;;;;;;;31.90;18.83;;;;;;;3.19;61.49;98434.91;5072992;28;20492;-70
2022/01/14 03:24:17;;;;;;;35.47;20.00;;;;;;;3.26;61.33;98422.47;5067691;28;20467;-69
2022/01/14 03:26:45;;;;;;;37.57;19.73;;;;;;;3.28;61.43;98419.78;5067130;28;20456;-69
2022/01/14 03:29:12;;;;;;;30.70;19.07;;;;;;;3.29;61.24;98416.28;5070103;28;20439;-69
2022/01/14 03:31:38;;;;;;;31.17;17.97;;;;;;;3.22;60.97;98411.44;5066979;28;20413;-69
2022/01/14 03:34:03;;;;;;;31.50;19.13;;;;;;;3.28;60.92;98405.09;5072251;28;20831;-69
2022/01/14 03:36:29;;;;;;;31.80;18.70;;;;;;;3.32;61.05;98405.78;5066324;28;20205;-70
2022/01/14 03:38:54;;;;;;;42.33;20.67;;;;;;;3.33;60.67;98412.66;5071720;28;20235;-69
2022/01/14 03:41:20;;;;;;;34.63;19.50;;;;;;;3.26;60.83;98406.94;5059511;28;20207;-70
2022/01/14 03:43:45;;;;;;;33.07;18.70;;;;;;;3.26;60.96;98406.09;5067040;28;20186;-69
2022/01/14 03:46:11;;;;;;;34.60;17.83;;;;;;;3.29;61.11;98414.56;5071349;28;20308;-69
2022/01/14 03:48:37;;;;;;;35.93;19.50;;;;;;;3.29;61.00;98408.53;5065484;28;20308;-70
2022/01/14 03:51:03;;;;;;;33.23;19.70;;;;;;;3.34;60.83;98409.97;5061088;28;20186;-71
2022/01/14 03:53:29;;;;;;;30.47;17.70;;;;;;;3.37;60.51;98411.59;5071586;28;20197;-70
2022/01/14 03:55:54;;;;;;;34.33;20.00;;;;;;;3.37;60.38;98409.00;5071285;28;20472;-70
2022/01/14 03:58:20;;;;;;;31.17;18.87;;;;;;;3.36;60.16;98408.13;5071151;28;20265;-70
2022/01/14 04:00:45;;;;;;;30.50;19.43;;;;;;;3.34;60.34;98409.97;5070380;28;20213;-70
2022/01/14 04:03:11;;;;;;;37.30;20.53;;;;;;;3.37;60.29;98409.00;5063087;28;20185;-70
2022/01/14 04:05:37;;;;;;;32.50;19.50;;;;;;;3.40;60.53;98405.41;5071551;28;20212;-71
2022/01/14 04:08:03;;;;;;;30.90;18.23;;;;;;;3.38;60.40;98395.13;5071861;28;20206;-69
2022/01/14 04:10:29;;;;;;;30.50;18.33;;;;;;;3.38;60.21;98395.94;5071078;28;20174;-70
2022/01/14 04:13:02;;;;;;;27.80;17.67;;;;;;;3.37;60.33;98394.25;5063104;28;20416;-70
2022/01/14 04:15:38;;;;;;;30.80;18.60;;;;;;;3.37;59.92;98388.25;5072083;28;20453;-69
2022/01/14 04:18:05;;;;;;;31.27;18.43;;;;;;;3.36;59.77;98387.41;5069795;28;20426;-69
2022/01/14 04:20:31;;;;;;;31.67;19.13;;;;;;;3.36;60.13;98402.13;5052776;28;20456;-69
2022/01/14 04:22:57;;;;;;;26.60;17.13;;;;;;;3.36;59.96;98399.53;5053829;28;20495;-70
2022/01/14 04:25:23;;;;;;;29.43;17.70;;;;;;;3.34;59.74;98398.78;5058513;28;20218;-71
2022/01/14 04:27:48;;;;;;;30.90;19.57;;;;;;;3.32;60.05;98398.88;5051887;28;20195;-69
2022/01/14 04:30:14;;;;;;;39.80;19.67;;;;;;;3.33;59.92;98392.75;5061220;28;20489;-70
2022/01/14 04:32:40;;;;;;;30.63;18.60;;;;;;;3.32;59.91;98388.50;5066095;28;20183;-68
2022/01/14 04:35:06;;;;;;;32.30;18.90;;;;;;;3.27;59.85;98382.69;5061050;28;20817;-69
2022/01/14 04:37:34;;;;;;;32.87;18.43;;;;;;;3.25;59.77;98378.50;5052534;28;20266;-69
2022/01/14 04:39:59;;;;;;;33.67;19.07;;;;;;;3.23;59.68;98382.03;5051819;28;20425;-69
2022/01/14 04:42:26;;;;;;;30.80;19.17;;;;;;;3.21;59.77;98377.84;5049979;28;20467;-69
2022/01/14 04:44:54;;;;;;;28.13;17.50;;;;;;;3.20;59.75;98371.81;5050898;28;20653;-69
2022/01/14 04:47:32;;;;;;;30.37;17.93;;;;;;;3.13;59.92;98365.25;5050958;28;20461;-69
2022/01/14 04:49:58;;;;;;;33.03;18.50;;;;;;;3.21;59.81;98370.06;5058803;28;20847;-68
2022/01/14 04:52:26;;;;;;;31.23;18.57;;;;;;;3.21;60.14;98370.06;5020188;28;20413;-69
2022/01/14 04:54:51;;;;;;;25.23;16.77;;;;;;;3.22;59.85;98363.94;5061967;28;20426;-70
2022/01/14 04:57:17;;;;;;;35.50;17.80;;;;;;;3.20;59.97;98366.63;5065962;28;20988;-70
2022/01/14 04:59:46;;;;;;;28.93;17.80;;;;;;;3.21;59.98;98367.47;5058922;28;20183;-71
2022/01/14 05:02:13;;;;;;;33.00;18.93;;;;;;;3.18;60.13;98371.03;5048251;28;20593;-70
2022/01/14 05:04:40;;;;;;;34.23;19.23;;;;;;;3.13;60.01;98362.69;5054939;28;20475;-69
2022/01/14 05:07:10;;;;;;;32.37;19.10;;;;;;;3.15;59.86;98373.78;5055809;28;20464;-69
2022/01/14 05:09:40;;;;;;;35.30;19.93;;;;;;;3.14;59.84;98371.28;5060715;28;20468;-70
2022/01/14 05:12:09;;;;;;;32.50;18.50;;;;;;;3.12;59.95;98366.19;5054515;28;20433;-69
2022/01/14 05:14:35;;;;;;;29.90;18.10;;;;;;;3.12;60.18;98368.75;5055016;28;20459;-69
2022/01/14 05:17:01;;;;;;;31.83;18.90;;;;;;;3.10;60.25;98370.59;5062664;28;20851;-70
2022/01/14 05:19:26;;;;;;;28.50;17.57;;;;;;;3.10;60.23;98364.56;5054412;28;20417;-70
2022/01/14 05:21:52;;;;;;;29.93;18.07;;;;;;;3.07;60.15;98365.56;5058280;28;20190;-70
2022/01/14 05:24:18;;;;;;;29.17;17.20;;;;;;;3.11;60.24;98354.13;5055329;28;20205;-68
2022/01/14 05:26:43;;;;;;;26.33;16.80;;;;;;;3.13;60.17;98352.31;5035957;28;20199;-69
2022/01/14 05:29:09;;;;;;;30.73;18.07;;;;;;;3.12;60.27;98354.97;5063197;28;20207;-70
2022/01/14 05:31:42;;;;;;;27.47;16.70;;;;;;;3.13;60.03;98354.03;5055283;28;20179;-69
2022/01/14 05:34:07;;;;;;;28.50;17.10;;;;;;;3.17;60.33;98361.59;5054864;28;20306;-69
2022/01/14 05:36:33;;;;;;;27.03;16.17;;;;;;;3.18;59.70;98358.06;5054465;28;20437;-69
2022/01/14 05:38:59;;;;;;;29.20;17.57;;;;;;;3.16;59.74;98365.09;5053396;28;20186;-68
2022/01/14 05:41:24;;;;;;;30.40;18.13;;;;;;;3.16;59.84;98359.91;5061766;28;20216;-70
2022/01/14 05:43:50;;;;;;;30.80;16.90;;;;;;;3.17;60.24;98358.16;5037859;28;20186;-70
2022/01/14 05:46:15;;;;;;;29.77;17.87;;;;;;;3.18;60.25;98363.25;5053781;28;20294;-69
2022/01/14 05:48:41;;;;;;;26.43;17.83;;;;;;;3.15;59.71;98365.19;5054483;28;20637;-69
2022/01/14 05:51:06;;;;;;;34.13;17.70;;;;;;;3.18;59.85;98362.44;5055167;28;20183;-69
2022/01/14 05:53:32;;;;;;;30.37;17.10;;;;;;;3.06;59.93;98358.69;5054343;28;20190;-70
2022/01/14 05:55:58;;;;;;;30.20;16.80;;;;;;;3.10;59.88;98365.41;5062451;28;20200;-70
2022/01/14 05:58:23;;;;;;;26.33;14.63;;;;;;;3.12;59.42;98367.91;5065951;28;20181;-70
2022/01/14 06:00:49;;;;;;;25.00;14.87;;;;;;;3.13;59.72;98364.41;5049302;28;20187;-70
2022/01/14 06:03:14;;;;;;;23.90;13.80;;;;;;;3.13;59.69;98361.81;5046234;28;20210;-72
2022/01/14 06:05:40;;;;;;;20.60;12.27;;;;;;;3.12;59.60;98366.19;5054761;28;20230;-68
2022/01/14 06:08:05;;;;;;;23.43;14.37;;;;;;;3.10;59.72;98365.41;5056511;28;20207;-69
2022/01/14 06:10:31;;;;;;;21.30;13.23;;;;;;;3.04;59.67;98363.09;5070210;28;20187;-69
2022/01/14 06:12:57;;;;;;;25.40;15.47;;;;;;;2.94;60.32;98354.13;5055666;28;20642;-69
2022/01/14 06:15:22;;;;;;;30.50;16.80;;;;;;;2.86;60.26;98360.53;5046476;28;20214;-70
2022/01/14 06:17:48;;;;;;;29.20;17.53;;;;;;;2.87;60.44;98354.44;5056051;28;20329;-70
2022/01/14 06:20:14;;;;;;;32.97;18.30;;;;;;;2.78;60.13;98354.88;5052345;28;20252;-69
2022/01/14 06:22:39;;;;;;;30.00;18.83;;;;;;;2.75;60.46;98349.88;5058311;28;20175;-69
2022/01/14 06:25:06;;;;;;;47.30;19.20;;;;;;;2.80;60.30;98352.22;5056500;28;20198;-70
2022/01/14 06:27:32;;;;;;;35.00;18.97;;;;;;;2.76;60.17;98346.38;5065783;28;20677;-70
2022/01/14 06:29:59;;;;;;;31.23;17.53;;;;;;;2.65;60.38;98348.66;5055189;28;20928;-69
2022/01/14 06:32:25;;;;;;;35.97;17.70;;;;;;;2.69;60.53;98350.16;5066040;28;20417;-69
2022/01/14 06:34:50;;;;;;;24.80;16.97;;;;;;;2.77;60.85;98342.88;5065531;28;20688;-70
2022/01/14 06:37:16;;;;;;;38.07;18.10;;;;;;;2.81;60.74;98338.38;5068981;28;20170;-71
2022/01/14 06:39:42;;;;;;;53.10;17.60;;;;;;;2.86;60.58;98332.06;5067245;28;20175;-70
2022/01/14 06:42:07;;;;;;;31.10;17.40;;;;;;;2.87;60.38;98338.06;5072967;28;20231;-70
2022/01/14 06:44:33;;;;;;;33.13;16.20;;;;;;;2.90;60.31;98338.72;5057679;28;20646;-71
2022/01/14 06:46:58;;;;;;;29.33;15.87;;;;;;;2.91;60.36;98335.22;5060132;28;20305;-68
2022/01/14 06:49:24;;;;;;;33.63;17.30;;;;;;;2.91;60.51;98334.41;5070688;28;20269;-70
2022/01/14 06:51:50;;;;;;;37.33;16.83;;;;;;;2.87;60.60;98336.31;5074347;28;20221;-70
2022/01/14 06:54:15;;;;;;;31.17;16.27;;;;;;;2.88;60.65;98334.56;5071644;28;20209;-70
2022/01/14 06:56:41;;;;;;;35.43;14.73;;;;;;;2.95;60.28;98335.94;5073906;28;20224;-69
2022/01/14 06:59:06;;;;;;;35.97;15.50;;;;;;;2.95;60.11;98341.13;5085352;28;20180;-70
2022/01/14 07:01:32;;;;;;;26.63;14.63;;;;;;;2.98;60.18;98334.94;5071353;28;20189;-70
2022/01/14 07:03:58;;;;;;;26.53;13.90;;;;;;;3.02;59.79;98339.06;5075967;28;20249;-70
2022/01/14 07:06:23;;;;;;;27.30;14.70;;;;;;;3.02;60.06;98345.06;5072533;28;20657;-69
2022/01/14 07:08:49;;;;;;;28.37;15.00;;;;;;;3.02;59.69;98352.84;5073038;28;20210;-69
2022/01/14 07:11:15;;;;;;;30.10;13.57;;;;;;;3.05;59.71;98352.69;5069895;28;20253;-69
2022/01/14 07:13:40;;;;;;;20.63;12.20;;;;;;;3.06;59.49;98358.69;5067285;28;20182;-69
2022/01/14 07:16:06;;;;;;;27.13;14.30;;;;;;;3.07;60.00;98368.16;5069221;28;20456;-69
2022/01/14 07:18:32;;;;;;;24.50;13.57;;;;;;;3.09;59.74;98373.28;5057882;28;20183;-70
2022/01/14 07:20:58;;;;;;;24.53;15.00;;;;;;;3.08;59.61;98380.19;5071811;28;20186;-68
2022/01/14 07:23:23;;;;;;;21.33;14.30;;;;;;;3.11;59.88;98382.63;5069153;28;20435;-71
2022/01/14 07:25:49;;;;;;;22.60;14.00;;;;;;;3.07;59.66;98381.09;5061553;28;20638;-70
2022/01/14 07:28:14;;;;;;;23.70;14.87;;;;;;;3.07;59.86;98383.69;5072244;28;20206;-70
2022/01/14 07:30:40;;;;;;;25.30;13.90;;;;;;;3.04;59.51;98389.88;5063890;28;20599;-69
2022/01/14 07:33:06;;;;;;;25.97;14.70;;;;;;;3.07;59.73;98399.22;5059125;28;20189;-69
2022/01/14 07:35:31;;;;;;;24.90;14.03;;;;;;;3.09;59.95;98394.00;5070181;28;20298;-71
2022/01/14 07:37:57;;;;;;;21.33;13.77;;;;;;;3.11;59.38;98397.31;5031017;28;20179;-68
2022/01/14 07:40:22;;;;;;;22.73;14.53;;;;;;;3.14;59.62;98398.03;5052417;28;20186;-71
2022/01/14 07:42:48;;;;;;;23.40;14.33;;;;;;;3.17;59.54;98403.03;5070671;28;20731;-70
2022/01/14 07:45:14;;;;;;;24.77;13.83;;;;;;;3.03;59.86;98395.09;5069635;28;20248;-71
2022/01/14 07:47:39;;;;;;;25.07;14.90;;;;;;;3.09;59.74;98409.53;5063849;28;20214;-73
2022/01/14 07:50:06;;;;;;;27.23;15.80;;;;;;;3.09;60.05;98412.97;5050061;28;20244;-70
2022/01/14 07:52:31;;;;;;;27.70;15.70;;;;;;;3.14;59.90;98413.59;5059975;28;20264;-69
2022/01/14 07:54:57;;;;;;;26.97;16.00;;;;;;;3.19;59.90;98413.34;5062385;28;20528;-70
2022/01/14 07:57:22;;;;;;;30.30;16.10;;;;;;;3.18;59.50;98407.31;5053279;28;20257;-71
2022/01/14 07:59:48;;;;;;;26.83;15.50;;;;;;;3.23;59.39;98405.34;5012248;28;20195;-71
2022/01/14 08:02:14;;;;;;;24.13;14.83;;;;;;;3.28;59.63;98415.47;5062935;28;20590;-71
2022/01/14 08:04:40;;;;;;;26.13;13.50;;;;;;;3.33;59.64;98415.25;5071557;28;20182;-71
2022/01/14 08:07:09;;;;;;;24.63;14.57;;;;;;;3.37;59.49;98409.81;5070920;28;20586;-71
2022/01/14 08:09:41;;;;;;;22.67;14.07;;;;;;;3.42;59.23;98411.34;5071009;28;20475;-71
2022/01/14 08:12:08;;;;;;;28.23;16.20;;;;;;;3.52;59.14;98417.75;5062927;28;20421;-71
2022/01/14 08:14:34;;;;;;;26.60;15.53;;;;;;;3.50;59.05;98414.38;5069929;28;20425;-70
2022/01/14 08:17:00;;;;;;;28.07;16.67;;;;;;;3.53;58.93;98402.09;5049063;28;20512;-71
2022/01/14 08:19:26;;;;;;;32.13;16.33;;;;;;;3.46;59.16;98399.91;5053514;28;20421;-71
2022/01/14 08:21:51;;;;;;;28.87;16.53;;;;;;;3.61;58.99;98398.28;5068944;28;20210;-71
2022/01/14 08:24:17;;;;;;;26.57;15.97;;;;;;;3.74;59.17;98394.13;5070353;28;20269;-70
2022/01/14 08:26:42;;;;;;;23.43;12.73;;;;;;;3.84;58.89;98386.72;5069799;28;20210;-70
2022/01/14 08:29:08;;;;;;;25.53;15.20;;;;;;;3.89;57.97;98394.25;5070808;28;20242;-71
2022/01/14 08:31:34;;;;;;;22.40;15.10;;;;;;;4.00;57.76;98404.91;5065421;28;20185;-71
2022/01/14 08:34:00;;;;;;;26.33;14.03;;;;;;;4.13;57.84;98392.09;5071161;28;20237;-71
2022/01/14 08:36:28;;;;;;;27.53;14.70;;;;;;;4.23;57.47;98392.44;5053614;28;20296;-70
2022/01/14 08:38:54;;;;;;;27.90;15.37;;;;;;;4.29;57.75;98392.09;5061758;28;20424;-69
2022/01/14 08:41:19;;;;;;;27.17;18.07;;;;;;;4.34;57.19;98389.28;5070532;28;20439;-69
2022/01/14 08:43:47;;;;;;;30.57;18.90;;;;;;;4.39;57.58;98392.44;5070397;28;20660;-69
2022/01/14 08:46:14;;;;;;;29.90;15.90;;;;;;;4.50;57.32;98397.03;5069899;28;20467;-71
2022/01/14 08:48:40;;;;;;;22.73;14.53;;;;;;;4.52;56.73;98410.78;5070258;28;20480;-71
2022/01/14 08:51:06;;;;;;;31.50;15.20;;;;;;;4.58;57.64;98405.25;5069455;28;20482;-70
2022/01/14 08:53:32;;;;;;;25.40;14.20;;;;;;;4.67;56.24;98402.13;5061837;28;20265;-71
2022/01/14 08:55:58;;;;;;;22.77;12.57;;;;;;;4.69;56.55;98402.88;5070859;28;20441;-70
2022/01/14 08:58:23;;;;;;;16.83;11.60;;;;;;;4.76;55.83;98396.44;5070772;28;20182;-70
2022/01/14 09:00:49;;;;;;;18.70;12.00;;;;;;;4.73;55.38;98399.19;5046239;28;20296;-70
2022/01/14 09:03:15;;;;;;;22.50;13.80;;;;;;;4.84;55.19;98397.75;5063428;28;20186;-70
2022/01/14 09:05:41;;;;;;;19.63;13.20;;;;;;;4.92;54.61;98400.75;5070535;28;20302;-70
2022/01/14 09:08:06;;;;;;;24.37;15.83;;;;;;;5.02;54.87;98401.91;5069861;28;20453;-71
2022/01/14 09:10:32;;;;;;;34.30;19.97;;;;;;;5.11;55.77;98394.50;5070397;28;20668;-70
2022/01/14 09:12:58;;;;;;;31.33;18.23;;;;;;;5.30;54.96;98400.28;5075043;28;20184;-71
2022/01/14 09:15:23;;;;;;;24.97;16.33;;;;;;;5.46;54.78;98396.78;5070717;28;20699;-70
2022/01/14 09:17:49;;;;;;;28.57;18.43;;;;;;;5.58;54.32;98393.47;5053226;28;20641;-70
2022/01/14 09:20:15;;;;;;;31.73;18.33;;;;;;;5.57;53.98;98391.78;5068351;28;20182;-72
2022/01/14 09:22:47;;;;;;;32.80;18.47;;;;;;;5.74;54.29;98392.56;5060836;28;20191;-71
2022/01/14 09:25:13;;;;;;;28.87;16.93;;;;;;;5.82;53.59;98392.91;5069721;28;20264;-71
2022/01/14 09:27:39;;;;;;;23.57;15.10;;;;;;;5.95;53.13;98385.22;5046351;28;20617;-71
2022/01/14 09:30:05;;;;;;;27.93;14.90;;;;;;;5.99;52.90;98397.97;5061704;28;20429;-71
2022/01/14 09:32:31;;;;;;;31.87;17.40;;;;;;;6.07;53.23;98396.66;5070386;28;20273;-69
2022/01/14 09:34:57;;;;;;;20.77;13.23;;;;;;;6.22;52.72;98387.91;5070181;28;20517;-71
2022/01/14 09:37:22;;;;;;;22.30;14.30;;;;;;;6.35;52.27;98394.94;5054909;28;20178;-70
2022/01/14 09:39:48;;;;;;;24.07;14.20;;;;;;;6.33;51.76;98384.63;5072891;28;20186;-71
2022/01/14 09:42:14;;;;;;;20.70;13.43;;;;;;;6.48;51.83;98387.19;5065264;28;20183;-71
2022/01/14 09:44:41;;;;;;;25.00;12.17;;;;;;;6.49;51.18;98389.69;5072695;28;20186;-71
2022/01/14 09:47:07;;;;;;;22.80;13.20;;;;;;;6.67;51.00;98397.28;5070907;28;20460;-72
2022/01/14 09:49:32;;;;;;;19.13;12.67;;;;;;;6.67;50.77;98397.28;5065603;28;20469;-70
2022/01/14 09:51:58;;;;;;;22.17;12.70;;;;;;;6.89;50.71;98396.72;5073051;28;20225;-73
2022/01/14 09:54:24;;;;;;;22.90;12.63;;;;;;;6.90;49.96;98391.41;5058316;28;20212;-71
2022/01/14 09:56:49;;;;;;;19.27;12.97;;;;;;;7.06;49.95;98395.59;5071978;28;20209;-70
2022/01/14 09:59:18;;;;;;;20.60;13.80;;;;;;;6.80;50.08;98390.34;5063973;28;20174;-70
2022/01/14 10:01:46;;;;;;;20.07;13.33;;;;;;;7.05;50.16;98396.56;5063035;28;20189;-70
2022/01/14 10:04:14;;;;;;;27.70;17.13;;;;;;;7.11;50.25;98396.16;5076068;28;20496;-72
2022/01/14 10:06:43;;;;;;;32.80;19.80;;;;;;;7.34;49.68;98393.78;5056837;28;20453;-70
2022/01/14 10:09:20;;;;;;;25.73;16.07;;;;;;;7.48;49.40;98392.88;5073891;28;20907;-69
2022/01/14 10:12:05;;;;;;;28.37;14.73;;;;;;;7.41;49.10;98387.22;5073431;28;20541;-71
2022/01/14 10:14:32;;;;;;;29.10;16.83;;;;;;;7.58;49.28;98382.63;5060598;28;20429;-71
2022/01/14 10:17:04;;;;;;;22.07;13.70;;;;;;;7.70;49.17;98384.38;5071781;28;20814;-69
2022/01/14 10:19:34;;;;;;;24.90;14.53;;;;;;;7.77;49.15;98385.66;5073962;28;20516;-69
2022/01/14 10:22:00;;;;;;;21.20;14.00;;;;;;;7.67;48.68;98382.00;5067718;28;20433;-69
2022/01/14 10:24:29;;;;;;;20.30;12.83;;;;;;;7.54;49.51;98387.22;5072325;28;20439;-71
2022/01/14 10:26:58;;;;;;;29.20;15.60;;;;;;;7.61;50.06;98383.28;5073170;28;20476;-71
2022/01/14 10:29:38;;;;;;;37.80;20.03;;;;;;;7.82;49.05;98391.38;5063710;28;20432;-70
2022/01/14 10:32:07;;;;;;;28.00;15.67;;;;;;;7.98;48.71;98385.09;5070342;28;20424;-72
2022/01/14 10:34:33;;;;;;;25.10;15.63;;;;;;;8.20;48.21;98378.38;5072888;28;20514;-71
2022/01/14 10:37:11;;;;;;;36.77;14.93;;;;;;;8.20;48.46;98381.81;5071955;28;20448;-71
2022/01/14 10:39:44;;;;;;;26.97;15.53;;;;;;;8.41;48.12;98376.84;5073427;28;20797;-70
2022/01/14 10:42:21;;;;;;;22.20;14.20;;;;;;;8.59;47.78;98374.72;5072953;28;20427;-71
2022/01/14 10:44:47;;;;;;;26.97;16.20;;;;;;;8.68;46.92;98365.38;5072198;28;20436;-70
2022/01/14 10:47:21;;;;;;;30.50;17.57;;;;;;;8.76;47.65;98365.66;5072576;28;20488;-70
2022/01/14 10:49:50;;;;;;;22.50;14.50;;;;;;;8.88;47.10;98360.47;5072544;28;20194;-71
2022/01/14 10:52:19;;;;;;;23.93;14.17;;;;;;;8.98;47.21;98358.81;5070154;28;20429;-70
2022/01/14 10:54:51;;;;;;;23.07;14.50;;;;;;;9.00;46.70;98361.34;5067476;28;20436;-70
2022/01/14 10:57:22;;;;;;;17.43;12.10;;;;;;;9.09;46.50;98359.81;5071589;28;20440;-71
2022/01/14 10:59:49;;;;;;;19.40;11.53;;;;;;;9.17;46.33;98358.28;5067743;28;20805;-71
2022/01/14 11:02:52;;;;;;;17.20;12.03;;;;;;;9.41;45.92;98353.94;5063785;28;20421;-71
2022/01/14 11:05:23;;;;;;;24.67;13.07;;;;;;;9.29;46.87;98355.69;4991941;28;20464;-71
2022/01/14 11:07:50;;;;;;;16.13;11.70;;;;;;;9.50;46.37;98342.78;4991241;28;20460;-70
2022/01/14 11:10:18;;;;;;;15.27;10.80;;;;;;;9.60;45.61;98348.13;5001894;28;20439;-71
2022/01/14 11:12:44;;;;;;;15.90;10.33;;;;;;;9.79;45.78;98352.78;4980453;28;20971;-72
2022/01/14 11:15:11;;;;;;;17.83;11.10;;;;;;;9.74;45.23;98350.53;4989928;28;20456;-72
2022/01/14 11:17:37;;;;;;;18.40;12.57;;;;;;;9.79;45.25;98345.75;4991518;28;20616;-70
2022/01/14 11:20:05;;;;;;;20.27;11.73;;;;;;;9.92;45.15;98342.16;4989762;28;20947;-72
2022/01/14 11:25:15;;;;;;;23.10;13.00;;;;;;;9.96;45.21;98338.38;4993075;28;20900;-68
2022/01/14 11:27:46;;;;;;;29.77;14.20;;;;;;;10.04;45.10;98337.78;4990416;28;20548;-69
2022/01/14 11:30:13;;;;;;;18.03;12.43;;;;;;;10.02;45.31;98326.56;4990349;28;20283;-72
2022/01/14 11:32:58;;;;;;;18.70;11.80;;;;;;;10.11;45.25;98325.84;4990011;28;20463;-69
2022/01/14 11:35:26;;;;;;;17.30;11.57;;;;;;;10.18;45.04;98316.56;4988945;28;20566;-71
2022/01/14 11:37:52;;;;;;;19.90;12.30;;;;;;;10.10;45.42;98309.31;4990502;28;20554;-71
2022/01/14 11:40:18;;;;;;;19.13;13.00;;;;;;;10.17;45.13;98304.41;5058317;28;20460;-72
2022/01/14 11:42:44;;;;;;;19.13;12.33;;;;;;;10.08;45.26;98303.34;5071520;28;20189;-72